Liberal, Kansas
Current Conditions -  °F | °C
As of 7:15 PM on Tuesday 27 Jan 2015 (Local Time) from KLBL Reporting Station
Clear Clear  
Wind Chill: 55°   Ceiling: Unl
Heat Index: 55°   Visibility: 10mi
Dew Point: 28°   Wind: 9mph
Humidity: 36%   Direction: 210°SSW
Pressure: 30.05"   Gusts: NA
Location:  37.04°N, 100.92°W
Report Text: KLBL 280115Z AUTO 21008KT 10SM CLR 13/M02 A3005 RMK AO1
Loading
Personal Weather Stations






























Interactive Weather Map New forecast layout! Learn more

10-Day Weather Forecast

Advertisements
Track Severe Weather on mobile